Time;durP1;ratioP1;P1;durP2;ratioP2;P2;SDS_P1;SDS_P2;PMS_P1;PMS_P2;Temp;Humidity;BMP_temperature;BMP_pressure;BME280_temperature;BME280_humidity;BME280_pressure;Samples;Min_cycle;Max_cycle;Signal;HPM_P1;HPM_P2
2021/01/15 00:00:14;;;;;;;14.15;3.10;;;7.10;99.90;;;;;;5120331;28;19911;-67
2021/01/15 00:02:40;;;;;;;13.05;5.00;;;7.00;99.90;;;;;;5119689;28;20036;-67
2021/01/15 00:05:06;;;;;;;;;;;7.00;99.90;;;;;;5110089;28;20023;-67
2021/01/15 00:07:32;;;;;;;15.75;3.60;;;7.00;99.90;;;;;;5116532;28;20406;-67
2021/01/15 00:09:58;;;;;;;;;;;6.90;99.90;;;;;;5120496;28;20016;-67
2021/01/15 00:12:24;;;;;;;11.30;2.55;;;6.80;99.90;;;;;;5119667;27;19912;-66
2021/01/15 00:14:49;;;;;;;;;;;6.90;99.90;;;;;;5120460;28;20055;-67
2021/01/15 00:17:15;;;;;;;8.45;2.17;;;6.80;99.90;;;;;;5119472;28;19929;-67
2021/01/15 00:19:41;;;;;;;;;;;7.10;99.90;;;;;;5120240;28;20050;-67
2021/01/15 00:22:06;;;;;;;9.18;2.15;;;7.00;99.90;;;;;;5119751;28;19957;-67
2021/01/15 00:24:32;;;;;;;;;;;6.80;99.90;;;;;;5120150;28;20016;-67
2021/01/15 00:26:58;;;;;;;11.30;2.70;;;7.00;99.90;;;;;;5119740;28;19924;-67
2021/01/15 00:29:24;;;;;;;;;;;7.00;99.90;;;;;;5120432;28;20113;-67
2021/01/15 00:31:50;;;;;;;18.20;2.28;;;7.40;99.90;;;;;;5119135;28;19904;-67
2021/01/15 00:34:17;;;;;;;15.45;2.95;;;7.10;99.90;;;;;;5119551;28;20022;-67
2021/01/15 00:36:45;;;;;;;7.78;2.35;;;7.30;99.90;;;;;;5119411;28;20142;-67
2021/01/15 00:39:15;;;;;;;10.93;2.88;;;7.20;99.90;;;;;;5119404;27;20361;-67
2021/01/15 00:41:43;;;;;;;10.98;2.70;;;7.10;99.90;;;;;;5119524;28;20036;-67
2021/01/15 00:44:09;;;;;;;13.07;2.78;;;7.20;99.90;;;;;;5119475;28;20023;-67
2021/01/15 00:46:36;;;;;;;10.38;2.00;;;7.10;99.90;;;;;;5119021;28;20077;-67
2021/01/15 00:49:04;;;;;;;7.05;2.28;;;7.00;99.90;;;;;;5119380;28;20024;-67
2021/01/15 00:51:31;;;;;;;9.32;2.08;;;6.90;99.90;;;;;;5119010;28;20028;-67
2021/01/15 00:53:57;;;;;;;12.18;2.30;;;6.80;99.90;;;;;;5119246;28;20057;-67
2021/01/15 00:56:23;;;;;;;7.30;2.00;;;6.90;99.90;;;;;;5119278;28;20034;-67
2021/01/15 00:58:50;;;;;;;;;;;7.00;99.90;;;;;;5119511;28;20023;-67
2021/01/15 01:01:17;;;;;;;8.88;2.97;;;7.10;99.90;;;;;;5118629;28;19904;-67
2021/01/15 01:03:43;;;;;;;12.23;2.90;;;7.00;99.90;;;;;;5118700;28;20108;-67
2021/01/15 01:06:17;;;;;;;12.95;3.45;;;7.00;99.90;;;;;;5105130;28;20102;-67
2021/01/15 01:08:43;;;;;;;7.82;2.60;;;7.10;99.90;;;;;;5118852;28;20395;-67
2021/01/15 01:11:13;;;;;;;15.73;4.22;;;7.00;99.90;;;;;;5118735;28;20364;-67
2021/01/15 01:13:40;;;;;;;8.85;2.40;;;7.00;99.90;;;;;;5118516;28;20598;-67
2021/01/15 01:16:06;;;;;;;12.20;4.18;;;7.00;99.90;;;;;;5118818;28;20023;-67
2021/01/15 01:18:35;;;;;;;13.52;3.30;;;7.20;99.90;;;;;;5118321;28;20080;-67
2021/01/15 01:21:02;;;;;;;10.93;3.80;;;7.00;99.90;;;;;;5119139;28;20484;-66
2021/01/15 01:23:29;;;;;;;10.18;2.40;;;7.10;99.90;;;;;;5118509;28;20547;-67
2021/01/15 01:25:55;;;;;;;7.40;3.15;;;7.00;99.90;;;;;;5118795;28;20030;-67
2021/01/15 01:28:20;;;;;;;;;;;7.10;99.90;;;;;;5118801;28;20019;-67
2021/01/15 01:30:46;;;;;;;8.93;2.65;;;7.20;99.90;;;;;;5118408;28;19911;-67
2021/01/15 01:33:12;;;;;;;;;;;7.20;99.90;;;;;;5118407;28;20547;-67
2021/01/15 01:35:38;;;;;;;19.90;5.93;;;7.20;99.90;;;;;;5118729;28;20275;-67
2021/01/15 01:38:04;;;;;;;;;;;7.10;99.90;;;;;;5118952;28;20112;-67
2021/01/15 01:40:30;;;;;;;10.25;3.38;;;7.10;99.90;;;;;;5118458;28;19910;-67
2021/01/15 01:42:55;;;;;;;;;;;7.00;99.90;;;;;;5118553;28;20490;-67
2021/01/15 01:45:21;;;;;;;14.85;4.25;;;7.10;99.90;;;;;;5118590;28;19908;-67
2021/01/15 01:47:47;;;;;;;;;;;7.10;99.90;;;;;;5118392;28;20110;-67
2021/01/15 01:50:13;;;;;;;13.48;5.18;;;7.00;99.90;;;;;;5117786;28;19904;-67
2021/01/15 01:52:40;;;;;;;23.48;7.05;;;7.10;99.90;;;;;;5118078;28;20031;-67
2021/01/15 01:55:06;;;;;;;16.88;5.93;;;7.00;99.90;;;;;;5118601;28;20056;-67
2021/01/15 01:57:33;;;;;;;21.13;6.88;;;7.00;99.90;;;;;;5117930;27;20505;-67
2021/01/15 01:59:59;;;;;;;19.13;7.18;;;7.00;99.90;;;;;;5118426;28;20020;-67
2021/01/15 02:02:25;;;;;;;20.10;6.60;;;6.90;99.90;;;;;;5117696;28;20027;-67
2021/01/15 02:04:51;;;;;;;;;;;7.00;99.90;;;;;;5109924;28;20070;-67
2021/01/15 02:07:17;;;;;;;30.63;9.60;;;7.00;99.90;;;;;;5112411;28;19908;-67
2021/01/15 02:10:01;;;;;;;;;;;6.90;99.90;;;;;;5118437;28;20019;-67
2021/01/15 02:12:56;;;;;;;28.00;9.25;;;6.90;99.90;;;;;;5117580;28;20401;-67
2021/01/15 02:15:32;;;;;;;20.85;7.25;;;6.90;99.90;;;;;;5081603;28;20040;-67
2021/01/15 02:18:06;;;;;;;22.90;8.53;;;7.00;99.90;;;;;;5117727;28;20024;-67
2021/01/15 02:20:41;;;;;;;17.98;7.18;;;7.10;99.90;;;;;;5117678;28;20687;-66
2021/01/15 02:23:18;;;;;;;12.75;4.50;;;7.10;99.90;;;;;;5117811;28;20077;-67
2021/01/15 02:25:53;;;;;;;;;;;7.00;99.90;;;;;;5118276;28;20020;-67
2021/01/15 02:28:45;;;;;;;9.00;2.60;;;7.00;99.90;;;;;;5117548;28;19908;-67
2021/01/15 02:31:14;;;;;;;10.95;3.65;;;7.00;99.90;;;;;;5117769;28;20027;-67
2021/01/15 02:34:03;;;;;;;11.52;2.92;;;6.90;99.90;;;;;;5117624;28;20072;-67
2021/01/15 02:37:06;;;;;;;9.48;2.72;;;7.00;99.90;;;;;;5117679;28;20075;-67
2021/01/15 02:40:01;;;;;;;13.63;3.70;;;7.00;99.90;;;;;;5117777;28;20073;-67
2021/01/15 02:42:36;;;;;;;10.10;2.50;;;7.00;99.90;;;;;;5117344;28;20086;-67
2021/01/15 02:45:12;;;;;;;10.07;3.05;;;7.00;99.90;;;;;;5117746;28;20020;-67
2021/01/15 02:47:51;;;;;;;7.70;2.45;;;7.00;99.90;;;;;;5117292;28;20024;-67
2021/01/15 02:50:22;;;;;;;10.65;3.28;;;6.90;99.90;;;;;;5117618;28;20020;-67
2021/01/15 02:52:49;;;;;;;5.28;2.20;;;6.70;99.90;;;;;;5117609;28;20050;-67
2021/01/15 02:55:15;;;;;;;10.07;2.70;;;6.80;99.90;;;;;;5117749;28;20036;-67
2021/01/15 02:57:42;;;;;;;17.20;2.85;;;6.70;99.90;;;;;;5117463;28;20055;-67
2021/01/15 03:00:13;;;;;;;12.40;2.58;;;6.80;99.90;;;;;;5117474;28;20027;-67
2021/01/15 03:02:56;;;;;;;11.77;3.88;;;6.60;99.90;;;;;;5119953;28;20128;-67
2021/01/15 03:05:28;;;;;;;13.75;2.45;;;6.60;99.90;;;;;;5108558;28;20108;-66
2021/01/15 03:07:59;;;;;;;8.02;2.88;;;6.50;99.90;;;;;;5120990;28;20028;-67
2021/01/15 03:10:26;;;;;;;11.10;2.30;;;6.50;99.90;;;;;;5121568;28;20503;-67
2021/01/15 03:12:55;;;;;;;11.23;2.63;;;6.40;99.90;;;;;;5120942;28;20047;-67
2021/01/15 03:15:23;;;;;;;8.60;2.25;;;6.30;99.90;;;;;;5121297;28;20027;-67
2021/01/15 03:17:52;;;;;;;8.95;2.80;;;6.30;99.90;;;;;;5120779;28;20390;-67
2021/01/15 03:20:19;;;;;;;8.90;3.50;;;6.30;99.90;;;;;;5120945;27;20348;-67
2021/01/15 03:22:45;;;;;;;8.80;3.20;;;6.20;99.90;;;;;;5121011;28;20028;-67
2021/01/15 03:25:14;;;;;;;18.52;2.40;;;6.10;99.90;;;;;;5120854;28;20020;-67
2021/01/15 03:27:52;;;;;;;7.00;1.92;;;6.10;99.90;;;;;;5121031;28;20024;-67
2021/01/15 03:30:29;;;;;;;14.25;2.17;;;6.10;99.90;;;;;;5120694;28;20016;-67
2021/01/15 03:33:02;;;;;;;13.25;3.30;;;6.00;99.90;;;;;;5120652;28;20024;-67
2021/01/15 03:35:29;;;;;;;4.80;2.58;;;6.10;99.90;;;;;;5120555;28;20027;-67
2021/01/15 03:38:10;;;;;;;11.63;2.72;;;5.90;99.90;;;;;;5120742;28;20087;-67
2021/01/15 03:40:42;;;;;;;12.88;3.20;;;6.00;99.90;;;;;;5120768;28;20479;-67
2021/01/15 03:43:22;;;;;;;12.80;2.90;;;6.00;99.90;;;;;;5120331;28;20036;-67
2021/01/15 03:45:50;;;;;;;9.40;2.47;;;5.90;99.90;;;;;;5120727;28;20015;-67
2021/01/15 03:48:21;;;;;;;11.95;3.10;;;5.90;99.90;;;;;;5120033;28;20079;-66
2021/01/15 03:50:48;;;;;;;14.82;3.55;;;5.90;99.90;;;;;;5120484;28;20019;-67
2021/01/15 03:53:17;;;;;;;10.55;2.85;;;5.80;99.90;;;;;;5120311;28;20028;-67
2021/01/15 03:55:43;;;;;;;10.70;2.90;;;6.00;99.90;;;;;;5120559;28;20019;-67
2021/01/15 03:58:09;;;;;;;;;;;5.80;99.90;;;;;;5120774;28;20030;-67
2021/01/15 04:00:35;;;;;;;9.52;2.47;;;5.80;99.90;;;;;;5120357;28;19969;-67
2021/01/15 04:03:01;;;;;;;;;;;5.80;99.90;;;;;;5120184;28;20024;-67
2021/01/15 04:05:27;;;;;;;7.22;2.80;;;5.50;99.90;;;;;;5106770;28;20352;-67
2021/01/15 04:07:52;;;;;;;;;;;5.60;99.90;;;;;;5119948;28;20024;-67
2021/01/15 04:10:20;;;;;;;16.08;3.33;;;5.50;99.90;;;;;;5120457;28;19904;-67
2021/01/15 04:12:46;;;;;;;9.68;3.03;;;5.70;99.90;;;;;;5119214;28;20112;-67
2021/01/15 04:15:14;;;;;;;8.45;2.15;;;5.90;99.90;;;;;;5120066;28;20156;-67
2021/01/15 04:17:40;;;;;;;7.57;1.85;;;5.90;99.90;;;;;;5119616;28;20026;-66
2021/01/15 04:20:08;;;;;;;7.80;2.55;;;5.80;99.90;;;;;;5119695;28;20035;-66
2021/01/15 04:22:42;;;;;;;10.20;2.47;;;5.90;99.90;;;;;;5120129;27;20024;-67
2021/01/15 04:25:09;;;;;;;11.35;2.45;;;5.90;99.90;;;;;;5119841;28;20617;-67
2021/01/15 04:27:37;;;;;;;11.40;2.30;;;6.00;99.90;;;;;;5119711;28;20019;-66
2021/01/15 04:30:07;;;;;;;7.88;2.13;;;6.10;99.90;;;;;;5119694;28;20030;-67
2021/01/15 04:32:34;;;;;;;6.72;2.10;;;6.00;99.90;;;;;;5119467;28;20494;-66
2021/01/15 04:35:02;;;;;;;5.20;2.10;;;6.00;99.90;;;;;;5119513;28;20047;-67
2021/01/15 04:37:28;;;;;;;7.60;2.35;;;6.20;99.90;;;;;;5119614;28;20540;-67
2021/01/15 04:39:54;;;;;;;;;;;6.10;99.90;;;;;;5119844;28;20023;-67
2021/01/15 04:42:23;;;;;;;5.68;2.65;;;6.00;99.90;;;;;;5119574;28;20350;-66
2021/01/15 04:44:50;;;;;;;10.45;2.38;;;6.20;99.90;;;;;;5119235;28;20032;-67
2021/01/15 04:47:16;;;;;;;6.28;3.10;;;6.00;99.90;;;;;;5119340;28;20090;-67
2021/01/15 04:49:42;;;;;;;;;;;6.10;99.90;;;;;;5119710;28;20054;-67
2021/01/15 04:52:13;;;;;;;9.88;2.30;;;6.10;99.90;;;;;;5119573;27;19956;-67
2021/01/15 04:54:47;;;;;;;11.75;2.05;;;6.10;99.90;;;;;;5119234;28;20038;-67
2021/01/15 04:57:13;;;;;;;7.35;2.65;;;6.20;99.90;;;;;;5119321;27;20061;-67
2021/01/15 04:59:46;;;;;;;8.20;3.67;;;6.10;99.90;;;;;;5118997;28;20046;-67
2021/01/15 05:02:14;;;;;;;8.45;2.42;;;6.10;99.90;;;;;;5118729;28;20433;-66
2021/01/15 05:04:40;;;;;;;7.35;2.30;;;6.10;99.90;;;;;;5112326;28;20020;-67
2021/01/15 05:07:10;;;;;;;3.97;1.65;;;6.10;99.90;;;;;;5112090;28;20020;-67
2021/01/15 05:09:40;;;;;;;6.47;2.00;;;6.20;99.90;;;;;;5119333;28;20024;-67
2021/01/15 05:12:09;;;;;;;7.80;2.50;;;6.30;99.90;;;;;;5118577;28;20461;-67
2021/01/15 05:14:35;;;;;;;5.65;2.60;;;6.30;99.90;;;;;;5118971;28;20027;-67
2021/01/15 05:17:04;;;;;;;8.07;1.90;;;6.10;99.90;;;;;;5118328;28;20564;-67
2021/01/15 05:19:31;;;;;;;10.93;1.85;;;6.30;99.90;;;;;;5118680;28;20484;-67
2021/01/15 05:21:57;;;;;;;8.13;1.95;;;6.20;99.90;;;;;;5118759;28;20050;-67
2021/01/15 05:24:24;;;;;;;8.80;1.80;;;6.10;99.90;;;;;;5117854;28;20062;-67
2021/01/15 05:26:49;;;;;;;13.02;2.85;;;5.90;99.90;;;;;;5118496;28;20064;-66
2021/01/15 05:29:16;;;;;;;;;;;5.90;99.90;;;;;;5119016;28;20019;-66
2021/01/15 05:31:50;;;;;;;6.32;1.77;;;5.80;99.90;;;;;;5118223;28;19931;-66
2021/01/15 05:34:17;;;;;;;6.13;2.72;;;5.50;99.90;;;;;;5118295;28;20134;-66
2021/01/15 05:36:44;;;;;;;11.77;2.20;;;5.50;99.90;;;;;;5118359;28;20399;-66
2021/01/15 05:39:17;;;;;;;5.53;1.80;;;5.30;99.90;;;;;;5118609;28;20030;-67
2021/01/15 05:41:44;;;;;;;7.88;2.60;;;5.20;99.90;;;;;;5118267;28;20031;-67
2021/01/15 05:44:11;;;;;;;7.43;2.08;;;5.20;99.90;;;;;;5118194;28;20019;-67
2021/01/15 05:46:47;;;;;;;7.50;2.20;;;5.40;99.90;;;;;;5117924;28;20454;-67
2021/01/15 05:49:13;;;;;;;6.60;3.42;;;5.30;99.90;;;;;;5118463;28;20388;-67
2021/01/15 05:51:40;;;;;;;16.25;2.47;;;5.30;99.90;;;;;;5117967;28;20016;-67
2021/01/15 05:54:09;;;;;;;11.63;2.72;;;5.50;99.90;;;;;;5118390;28;20063;-67
2021/01/15 05:56:45;;;;;;;9.48;2.60;;;5.40;99.90;;;;;;5118097;28;20036;-67
2021/01/15 05:59:15;;;;;;;9.57;2.05;;;5.60;99.90;;;;;;5118001;28;20031;-67
2021/01/15 06:01:48;;;;;;;7.10;2.35;;;5.70;99.90;;;;;;5117925;28;20023;-67
2021/01/15 06:04:17;;;;;;;6.47;1.90;;;5.50;99.90;;;;;;5114739;28;20053;-67
2021/01/15 06:06:43;;;;;;;12.13;2.22;;;5.60;99.90;;;;;;5107546;28;20033;-67
2021/01/15 06:09:11;;;;;;;11.90;2.95;;;5.50;99.90;;;;;;5117926;28;20392;-67
2021/01/15 06:11:40;;;;;;;8.75;2.20;;;5.60;99.90;;;;;;5102863;28;20016;-67
2021/01/15 06:14:56;;;;;;;13.32;3.13;;;5.40;99.90;;;;;;5101748;28;20048;-67
2021/01/15 06:17:23;;;;;;;10.60;3.33;;;5.20;99.90;;;;;;5028151;28;20510;-67
2021/01/15 06:20:01;;;;;;;10.82;2.60;;;5.30;99.90;;;;;;5092534;28;20036;-67
2021/01/15 06:22:29;;;;;;;13.85;3.70;;;5.40;99.90;;;;;;5117782;28;20031;-67
2021/01/15 06:25:24;;;;;;;7.28;2.97;;;5.20;99.90;;;;;;5117905;28;20016;-67
2021/01/15 06:28:03;;;;;;;15.27;3.45;;;5.50;99.90;;;;;;5117919;28;20028;-67
2021/01/15 06:30:36;;;;;;;10.38;4.07;;;5.40;99.90;;;;;;5112358;28;20028;-67
2021/01/15 06:33:15;;;;;;;21.05;7.30;;;5.50;99.90;;;;;;5109614;28;20031;-67
2021/01/15 06:35:47;;;;;;;25.50;7.57;;;5.50;99.90;;;;;;5118537;28;20034;-67
2021/01/15 06:38:15;;;;;;;20.75;5.57;;;5.80;99.90;;;;;;5120854;28;20077;-67
2021/01/15 06:40:43;;;;;;;17.20;3.88;;;5.50;99.90;;;;;;5121929;28;20024;-67
2021/01/15 06:43:20;;;;;;;9.73;2.65;;;5.50;99.90;;;;;;5121580;28;20024;-67
2021/01/15 06:45:50;;;;;;;7.28;2.50;;;5.50;99.90;;;;;;5121946;28;20027;-67
2021/01/15 06:48:44;;;;;;;17.13;3.58;;;5.40;99.90;;;;;;5121224;28;20042;-66
2021/01/15 06:51:10;;;;;;;9.52;2.40;;;5.60;99.90;;;;;;5118854;28;20077;-67
2021/01/15 06:53:42;;;;;;;;;;;5.30;99.90;;;;;;5122131;28;20027;-66
2021/01/15 06:56:16;;;;;;;12.35;2.85;;;5.50;99.90;;;;;;5121474;28;19911;-66
2021/01/15 06:58:43;;;;;;;9.25;2.53;;;5.40;99.90;;;;;;5121759;28;20079;-66
2021/01/15 07:01:30;;;;;;;12.45;4.53;;;5.40;99.90;;;;;;5121070;28;20053;-67
2021/01/15 07:04:28;;;;;;;46.83;13.33;;;5.40;99.90;;;;;;5120870;28;20051;-66
2021/01/15 07:07:15;;;;;;;45.60;12.93;;;5.50;99.90;;;;;;5057941;28;20095;-66
2021/01/15 07:09:47;;;;;;;29.10;8.93;;;5.60;99.90;;;;;;5096642;28;20028;-66
2021/01/15 07:12:15;;;;;;;14.93;4.95;;;5.60;99.90;;;;;;5120745;28;20043;-66
2021/01/15 07:15:01;;;;;;;15.55;3.47;;;5.70;99.90;;;;;;5121352;28;20108;-66
2021/01/15 07:17:32;;;;;;;14.43;5.15;;;5.80;99.90;;;;;;5120777;27;20486;-66
2021/01/15 07:20:07;;;;;;;13.77;5.15;;;5.60;99.90;;;;;;5121194;28;20044;-66
2021/01/15 07:22:47;;;;;;;23.85;7.03;;;5.70;99.90;;;;;;5121049;28;20059;-66
2021/01/15 07:25:14;;;;;;;33.92;9.85;;;5.70;99.90;;;;;;5121056;28;20016;-66
2021/01/15 07:27:41;;;;;;;30.77;10.00;;;5.70;99.90;;;;;;5121057;28;20023;-66
2021/01/15 07:30:31;;;;;;;31.23;10.85;;;5.70;99.90;;;;;;5120777;28;20060;-66
2021/01/15 07:32:58;;;;;;;19.65;6.78;;;5.50;99.90;;;;;;5120199;28;20518;-66
2021/01/15 07:35:26;;;;;;;15.98;4.50;;;5.40;99.90;;;;;;5120556;28;20016;-66
2021/01/15 07:38:12;;;;;;;12.60;4.72;;;5.30;99.90;;;;;;5120685;28;20068;-66
2021/01/15 07:40:39;;;;;;;14.82;3.80;;;5.10;99.90;;;;;;5121228;28;20028;-66
2021/01/15 07:43:07;;;;;;;5.38;2.67;;;5.20;99.90;;;;;;5120482;28;20110;-66
2021/01/15 07:45:42;;;;;;;7.32;3.03;;;4.90;99.90;;;;;;5120837;28;20020;-66
2021/01/15 07:48:09;;;;;;;7.53;2.78;;;4.70;99.90;;;;;;5119322;27;20400;-66
2021/01/15 07:50:36;;;;;;;11.65;3.78;;;4.70;99.90;;;;;;5120434;28;20054;-66
2021/01/15 07:53:21;;;;;;;10.07;3.40;;;4.30;99.90;;;;;;5120316;28;20484;-66
2021/01/15 07:55:59;;;;;;;7.20;4.05;;;4.30;99.90;;;;;;5120462;27;20403;-66
2021/01/15 07:58:45;;;;;;;7.97;4.18;;;4.10;99.90;;;;;;5120545;28;20070;-66
2021/01/15 08:01:13;;;;;;;9.27;3.70;;;4.10;99.90;;;;;;5119855;28;20038;-66
2021/01/15 08:03:54;;;;;;;7.28;3.22;;;4.10;99.90;;;;;;5120065;28;20062;-66
2021/01/15 08:06:21;;;;;;;7.68;3.70;;;3.90;99.90;;;;;;5093404;28;20016;-66
2021/01/15 08:09:00;;;;;;;14.45;3.67;;;3.90;99.90;;;;;;5120114;28;20063;-66
2021/01/15 08:11:27;;;;;;;9.82;3.35;;;4.10;99.90;;;;;;5120110;28;20028;-66
2021/01/15 08:14:22;;;;;;;14.27;4.43;;;3.90;99.90;;;;;;5119709;28;20555;-66
2021/01/15 08:16:48;;;;;;;4.25;2.70;;;4.00;99.90;;;;;;5119987;28;20028;-66
2021/01/15 08:19:21;;;;;;;4.93;2.70;;;4.20;99.90;;;;;;5119680;28;20028;-66
2021/01/15 08:21:48;;;;;;;9.63;3.03;;;4.30;99.90;;;;;;5119970;28;20016;-66
2021/01/15 08:24:14;;;;;;;5.07;2.67;;;4.60;99.90;;;;;;5119731;28;20028;-66
2021/01/15 08:26:47;;;;;;;4.38;2.30;;;4.80;99.90;;;;;;5119863;28;20066;-66
2021/01/15 08:29:14;;;;;;;6.18;2.47;;;4.60;99.90;;;;;;5120262;28;20370;-66
2021/01/15 08:31:40;;;;;;;5.22;2.90;;;4.60;99.90;;;;;;5119550;28;20106;-66
2021/01/15 08:34:14;;;;;;;10.27;4.30;;;4.50;99.90;;;;;;5118236;28;20031;-66
2021/01/15 08:36:41;;;;;;;14.82;5.22;;;4.40;99.90;;;;;;5119393;28;20097;-66
2021/01/15 08:39:08;;;;;;;7.43;4.70;;;4.70;99.90;;;;;;5119777;28;20027;-66
2021/01/15 08:41:35;;;;;;;8.88;5.22;;;5.00;99.90;;;;;;5119247;28;20169;-66
2021/01/15 08:44:02;;;;;;;8.30;4.65;;;5.30;99.90;;;;;;5119494;28;20027;-66
2021/01/15 08:46:29;;;;;;;7.40;3.90;;;5.50;99.90;;;;;;5119134;28;20028;-66
2021/01/15 08:48:54;;;;;;;13.48;4.90;;;5.60;99.90;;;;;;5119221;28;20022;-66
2021/01/15 08:51:20;;;;;;;;;;;5.90;99.90;;;;;;5119966;28;20098;-66
2021/01/15 08:54:06;;;;;;;7.85;3.95;;;6.80;99.90;;;;;;5119280;28;19911;-67
2021/01/15 08:56:37;;;;;;;9.90;4.00;;;7.60;99.90;;;;;;5119311;28;20081;-66
2021/01/15 08:59:06;;;;;;;5.30;3.13;;;7.60;99.90;;;;;;5119279;28;20020;-66
2021/01/15 09:01:34;;;;;;;10.63;5.03;;;7.30;99.90;;;;;;5118933;28;20057;-66
2021/01/15 09:04:04;;;;;;;14.68;4.43;;;7.10;99.90;;;;;;5117971;28;20028;-66
2021/01/15 09:06:30;;;;;;;7.75;5.05;;;6.90;99.90;;;;;;5107106;28;20054;-66
2021/01/15 09:09:03;;;;;;;11.25;5.25;;;6.90;99.90;;;;;;5119083;28;20501;-66
2021/01/15 09:11:34;;;;;;;11.30;5.75;;;6.80;99.90;;;;;;5118727;28;20024;-66
2021/01/15 09:14:02;;;;;;;11.70;6.07;;;6.90;99.90;;;;;;5118574;28;20050;-66
2021/01/15 09:16:28;;;;;;;13.75;5.75;;;7.00;99.90;;;;;;5118919;28;20055;-66
2021/01/15 09:18:57;;;;;;;12.43;6.28;;;7.00;99.90;;;;;;5118591;28;20026;-66
2021/01/15 09:21:23;;;;;;;10.27;5.70;;;7.00;99.90;;;;;;5118770;28;20019;-66
2021/01/15 09:23:49;;;;;;;;;;;7.80;99.90;;;;;;5119331;28;20383;-66
2021/01/15 09:26:19;;;;;;;8.20;4.13;;;8.80;99.90;;;;;;5118842;28;19907;-66
2021/01/15 09:28:45;;;;;;;9.00;3.20;;;9.60;99.90;;;;;;5118538;28;20024;-67
2021/01/15 09:31:11;;;;;;;14.38;6.95;;;10.10;99.90;;;;;;5118365;28;20048;-67
2021/01/15 09:33:46;;;;;;;;;;;10.30;99.90;;;;;;5118704;28;20031;-67
2021/01/15 09:36:23;;;;;;;19.20;5.80;;;10.30;99.90;;;;;;5118630;28;19904;-67
2021/01/15 09:38:49;;;;;;;;;;;10.30;99.90;;;;;;5119089;28;20140;-66
2021/01/15 09:41:15;;;;;;;7.43;4.47;;;10.60;99.90;;;;;;5118346;28;19915;-66
2021/01/15 09:43:42;;;;;;;8.93;4.22;;;10.70;99.90;;;;;;5118436;28;20031;-66
2021/01/15 09:46:08;;;;;;;13.20;6.13;;;10.40;99.90;;;;;;5118041;28;20024;-66
2021/01/15 09:48:34;;;;;;;9.00;5.00;;;9.80;99.90;;;;;;5118278;28;20027;-67
2021/01/15 09:51:00;;;;;;;;;;;9.30;99.90;;;;;;5118826;28;20024;-67
2021/01/15 09:53:26;;;;;;;16.52;5.65;;;9.20;99.90;;;;;;5118454;28;19911;-67
2021/01/15 09:55:53;;;;;;;;;;;9.30;99.90;;;;;;5118719;28;20024;-67
2021/01/15 09:58:19;;;;;;;7.80;3.92;;;9.50;99.90;;;;;;5118112;28;20382;-67
2021/01/15 10:00:45;;;;;;;16.25;4.85;;;10.20;99.90;;;;;;5117940;28;20511;-66
2021/01/15 10:03:11;;;;;;;;;;;10.60;99.90;;;;;;5118067;28;20045;-67
2021/01/15 10:05:40;;;;;;;9.80;3.28;;;10.70;99.90;;;;;;5104451;28;19908;-67
2021/01/15 10:08:06;;;;;;;8.70;3.95;;;10.30;99.90;;;;;;5118137;28;20037;-67
2021/01/15 10:10:31;;;;;;;;;;;10.00;99.90;;;;;;5117905;28;20027;-67
2021/01/15 10:12:57;;;;;;;10.75;3.65;;;9.80;99.90;;;;;;5117787;28;19980;-67
2021/01/15 10:15:23;;;;;;;;;;;10.20;99.90;;;;;;5118288;28;20483;-67
2021/01/15 10:17:49;;;;;;;7.25;3.28;;;10.10;99.90;;;;;;5117898;28;19904;-67
2021/01/15 10:20:14;;;;;;;;;;;10.40;99.90;;;;;;5118362;28;20036;-67
2021/01/15 10:22:42;;;;;;;4.55;2.85;;;10.10;99.90;;;;;;5117852;28;19939;-67
2021/01/15 10:25:08;;;;;;;6.15;3.38;;;9.90;99.90;;;;;;5117632;28;20024;-67
2021/01/15 10:27:35;;;;;;;11.13;4.13;;;9.70;99.90;;;;;;5117882;28;20024;-67
2021/01/15 10:30:01;;;;;;;6.28;3.35;;;9.80;99.90;;;;;;5117695;28;20043;-67
2021/01/15 10:32:26;;;;;;;;;;;10.10;99.90;;;;;;5117785;28;20490;-67
2021/01/15 10:34:52;;;;;;;5.97;3.30;;;10.20;99.90;;;;;;5117905;28;19904;-67
2021/01/15 10:37:18;;;;;;;7.88;3.15;;;9.90;99.90;;;;;;5117626;28;20024;-67
2021/01/15 10:39:44;;;;;;;;;;;9.90;99.90;;;;;;5118055;28;20031;-67
2021/01/15 10:42:09;;;;;;;5.78;3.17;;;10.20;99.90;;;;;;5117854;28;19911;-67
2021/01/15 10:44:35;;;;;;;11.55;3.55;;;10.60;99.90;;;;;;5117675;28;20027;-66
2021/01/15 10:47:03;;;;;;;6.95;2.55;;;10.70;99.90;;;;;;5117412;28;20047;-66
2021/01/15 10:49:28;;;;;;;6.32;2.92;;;10.70;99.90;;;;;;5117372;28;20498;-66
2021/01/15 10:51:55;;;;;;;;;;;10.70;99.90;;;;;;5118113;28;20024;-67
2021/01/15 10:54:21;;;;;;;2.63;2.00;;;10.70;99.90;;;;;;5117636;28;19911;-66
2021/01/15 10:56:48;;;;;;;7.05;2.80;;;11.10;99.90;;;;;;5117640;28;20076;-67
2021/01/15 10:59:15;;;;;;;2.50;2.15;;;11.30;99.90;;;;;;5117372;28;20055;-67
2021/01/15 11:01:46;;;;;;;2.47;2.10;;;11.10;99.90;;;;;;5117333;28;20026;-66
2021/01/15 11:04:14;;;;;;;9.48;2.75;;;10.80;99.90;;;;;;5114332;28;20062;-66
2021/01/15 11:06:42;;;;;;;3.00;2.13;;;10.40;99.90;;;;;;5107059;28;20016;-67
2021/01/15 11:09:09;;;;;;;6.00;2.88;;;10.10;99.90;;;;;;5117348;28;20031;-67
2021/01/15 11:11:35;;;;;;;6.95;2.00;;;10.00;99.90;;;;;;5117472;28;20108;-67
2021/01/15 11:14:01;;;;;;;3.38;1.98;;;9.70;99.90;;;;;;5117227;28;20047;-67
2021/01/15 11:16:27;;;;;;;;;;;9.60;99.90;;;;;;5117695;28;20076;-67
2021/01/15 11:18:53;;;;;;;2.03;1.80;;;9.70;99.90;;;;;;5117266;28;19904;-67
2021/01/15 11:21:28;;;;;;;4.20;1.85;;;9.80;99.90;;;;;;5117592;28;20527;-67
2021/01/15 11:23:54;;;;;;;2.88;2.47;;;9.70;99.90;;;;;;5120129;28;20365;-67
2021/01/15 11:26:27;;;;;;;;;;;9.80;99.90;;;;;;5121820;28;20046;-67
2021/01/15 11:28:57;;;;;;;4.85;2.03;;;9.70;99.90;;;;;;5120873;28;19904;-67
2021/01/15 11:31:24;;;;;;;3.65;1.77;;;10.00;99.90;;;;;;5120828;28;20026;-67
2021/01/15 11:33:50;;;;;;;2.80;1.70;;;9.70;99.90;;;;;;5120687;28;20095;-66
2021/01/15 11:36:17;;;;;;;2.65;2.05;;;9.60;99.90;;;;;;5120949;28;20053;-67
2021/01/15 11:38:44;;;;;;;2.25;1.90;;;9.70;99.90;;;;;;5120936;28;20024;-67
2021/01/15 11:41:12;;;;;;;2.03;1.80;;;9.60;99.90;;;;;;5120789;28;20384;-67
2021/01/15 11:43:39;;;;;;;2.78;2.35;;;9.80;99.90;;;;;;5120632;28;20077;-67
2021/01/15 11:46:06;;;;;;;6.70;2.38;;;10.00;99.90;;;;;;5120360;28;20027;-67
2021/01/15 11:48:33;;;;;;;4.03;2.15;;;10.30;99.90;;;;;;5120438;28;20016;-67
2021/01/15 11:51:00;;;;;;;2.30;2.10;;;10.70;99.90;;;;;;5120569;28;20384;-66
2021/01/15 11:53:31;;;;;;;2.83;1.98;;;11.20;99.90;;;;;;5120735;28;20383;-67
2021/01/15 11:55:57;;;;;;;1.98;1.75;;;11.50;99.90;;;;;;5120478;28;20027;-67
2021/01/15 11:58:24;;;;;;;5.68;2.28;;;11.70;99.90;;;;;;5120422;28;20019;-67
2021/01/15 12:00:50;;;;;;;2.30;2.10;;;11.80;99.90;;;;;;5120199;28;20023;-67
2021/01/15 12:03:16;;;;;;;2.40;1.77;;;11.80;99.90;;;;;;5120003;28;20038;-67
2021/01/15 12:05:43;;;;;;;4.07;2.13;;;11.80;99.90;;;;;;5106461;28;20016;-67
2021/01/15 12:08:09;;;;;;;4.15;1.80;;;11.80;99.90;;;;;;5120502;28;20042;-67
2021/01/15 12:10:35;;;;;;;1.70;1.60;;;12.00;99.90;;;;;;5120026;28;20487;-67
2021/01/15 12:13:01;;;;;;;2.55;1.83;;;12.20;99.90;;;;;;5119691;28;20052;-67
2021/01/15 12:15:27;;;;;;;3.35;1.70;;;12.80;99.90;;;;;;5120197;28;20114;-67
2021/01/15 12:17:53;;;;;;;6.40;2.05;;;13.00;99.90;;;;;;5119882;28;20032;-67
2021/01/15 12:20:20;;;;;;;3.97;1.88;;;12.50;99.90;;;;;;5119686;28;20031;-67
2021/01/15 12:22:48;;;;;;;2.20;2.00;;;12.10;99.90;;;;;;5119983;28;20027;-67
2021/01/15 12:25:14;;;;;;;3.47;2.17;;;12.00;99.90;;;;;;5119895;28;20027;-67
2021/01/15 12:27:40;;;;;;;2.40;1.48;;;12.60;99.90;;;;;;5120136;28;20027;-67
2021/01/15 12:30:07;;;;;;;2.03;1.80;;;12.50;99.90;;;;;;5119633;28;20024;-67
2021/01/15 12:32:33;;;;;;;3.92;1.85;;;13.10;99.90;;;;;;5119586;28;20031;-67
2021/01/15 12:35:00;;;;;;;4.30;2.08;;;13.70;99.90;;;;;;5119187;27;20408;-67
2021/01/15 12:37:26;;;;;;;2.45;2.25;;;13.40;99.90;;;;;;5118850;27;20059;-67
2021/01/15 12:39:53;;;;;;;2.97;2.13;;;12.60;99.90;;;;;;5118722;28;20098;-67
2021/01/15 12:42:19;;;;;;;2.15;1.70;;;11.90;99.90;;;;;;5118704;28;20083;-67
2021/01/15 12:44:45;;;;;;;3.53;1.88;;;11.10;99.90;;;;;;5118460;28;20487;-67
2021/01/15 12:47:11;;;;;;;4.43;2.08;;;10.70;99.90;;;;;;5118519;28;20518;-67
2021/01/15 12:49:37;;;;;;;4.18;2.47;;;10.50;99.90;;;;;;5118252;28;20028;-67
2021/01/15 12:52:03;;;;;;;3.25;2.08;;;10.40;99.90;;;;;;5118447;28;20031;-67
2021/01/15 12:54:29;;;;;;;2.95;2.60;;;10.30;99.90;;;;;;5118322;28;20031;-67
2021/01/15 12:56:55;;;;;;;5.00;3.08;;;10.20;99.90;;;;;;5118458;28;20454;-67
2021/01/15 12:59:21;;;;;;;3.72;2.05;;;9.90;99.90;;;;;;5118223;28;20058;-67
2021/01/15 13:01:47;;;;;;;3.72;2.45;;;9.90;99.90;;;;;;5118300;28;20058;-67
2021/01/15 13:04:12;;;;;;;;;;;10.70;99.90;;;;;;5115637;28;20085;-67
2021/01/15 13:06:41;;;;;;;5.22;2.67;;;11.40;99.90;;;;;;5107785;28;19911;-67
2021/01/15 13:09:10;;;;;;;4.47;2.35;;;12.30;99.90;;;;;;5118122;28;20487;-67
2021/01/15 13:11:36;;;;;;;4.47;2.58;;;12.50;99.90;;;;;;5118225;28;20099;-67